sensor_id;sensor_type;location;lat;lon;timestamp;P1;P2;P0
74419;PMS5003;62855;50.718;-2.460;2023-06-14T00:02:06;9.08;8.80;
74419;PMS5003;62855;50.718;-2.460;2023-06-14T00:05:06;9.08;8.80;
74419;PMS5003;62855;50.718;-2.460;2023-06-14T00:08:06;8.17;7.82;
74419;PMS5003;62855;50.718;-2.460;2023-06-14T00:11:06;8.17;7.82;
74419;PMS5003;62855;50.718;-2.460;2023-06-14T00:14:06;7.26;7.82;
74419;PMS5003;62855;50.718;-2.460;2023-06-14T00:17:06;7.26;6.84;
74419;PMS5003;62855;50.718;-2.460;2023-06-14T00:20:06;6.35;6.84;
74419;PMS5003;62855;50.718;-2.460;2023-06-14T00:23:06;5.45;5.87;
74419;PMS5003;62855;50.718;-2.460;2023-06-14T00:26:06;5.45;5.87;
74419;PMS5003;62855;50.718;-2.460;2023-06-14T00:29:06;5.45;5.87;
74419;PMS5003;62855;50.718;-2.460;2023-06-14T00:32:06;4.54;4.89;
74419;PMS5003;62855;50.718;-2.460;2023-06-14T00:35:06;4.54;4.89;
74419;PMS5003;62855;50.718;-2.460;2023-06-14T00:38:06;5.45;5.87;
74419;PMS5003;62855;50.718;-2.460;2023-06-14T00:41:06;4.54;4.89;
74419;PMS5003;62855;50.718;-2.460;2023-06-14T00:44:05;4.54;4.89;
74419;PMS5003;62855;50.718;-2.460;2023-06-14T00:47:06;3.63;3.91;
74419;PMS5003;62855;50.718;-2.460;2023-06-14T00:50:07;3.63;3.91;
74419;PMS5003;62855;50.718;-2.460;2023-06-14T00:53:06;4.54;4.89;
74419;PMS5003;62855;50.718;-2.460;2023-06-14T00:56:06;4.54;4.89;
74419;PMS5003;62855;50.718;-2.460;2023-06-14T00:59:05;4.54;4.89;
74419;PMS5003;62855;50.718;-2.460;2023-06-14T01:02:06;4.54;4.89;
74419;PMS5003;62855;50.718;-2.460;2023-06-14T01:05:06;4.54;4.89;
74419;PMS5003;62855;50.718;-2.460;2023-06-14T01:08:11;4.54;4.89;
74419;PMS5003;62855;50.718;-2.460;2023-06-14T01:11:07;4.54;4.89;
74419;PMS5003;62855;50.718;-2.460;2023-06-14T01:14:06;5.45;5.87;
74419;PMS5003;62855;50.718;-2.460;2023-06-14T01:17:05;5.45;5.87;
74419;PMS5003;62855;50.718;-2.460;2023-06-14T01:20:07;5.45;5.87;
74419;PMS5003;62855;50.718;-2.460;2023-06-14T01:23:06;5.45;4.89;
74419;PMS5003;62855;50.718;-2.460;2023-06-14T01:26:06;5.45;5.87;
74419;PMS5003;62855;50.718;-2.460;2023-06-14T01:29:06;6.35;5.87;
74419;PMS5003;62855;50.718;-2.460;2023-06-14T01:32:06;5.45;5.87;
74419;PMS5003;62855;50.718;-2.460;2023-06-14T01:35:06;5.45;4.89;
74419;PMS5003;62855;50.718;-2.460;2023-06-14T01:38:06;5.45;4.89;
74419;PMS5003;62855;50.718;-2.460;2023-06-14T01:41:06;6.35;4.89;
74419;PMS5003;62855;50.718;-2.460;2023-06-14T01:44:06;5.45;4.89;
74419;PMS5003;62855;50.718;-2.460;2023-06-14T01:47:06;5.45;4.89;
74419;PMS5003;62855;50.718;-2.460;2023-06-14T01:50:06;5.45;4.89;
74419;PMS5003;62855;50.718;-2.460;2023-06-14T01:53:06;5.45;4.89;
74419;PMS5003;62855;50.718;-2.460;2023-06-14T01:56:06;4.54;4.89;
74419;PMS5003;62855;50.718;-2.460;2023-06-14T01:59:06;4.54;4.89;
74419;PMS5003;62855;50.718;-2.460;2023-06-14T02:02:05;5.45;4.89;
74419;PMS5003;62855;50.718;-2.460;2023-06-14T02:05:06;5.45;4.89;
74419;PMS5003;62855;50.718;-2.460;2023-06-14T02:08:06;5.45;4.89;
74419;PMS5003;62855;50.718;-2.460;2023-06-14T02:11:06;5.45;5.87;
74419;PMS5003;62855;50.718;-2.460;2023-06-14T02:14:06;5.45;5.87;
74419;PMS5003;62855;50.718;-2.460;2023-06-14T02:17:06;5.45;5.87;
74419;PMS5003;62855;50.718;-2.460;2023-06-14T02:20:06;5.45;5.87;
74419;PMS5003;62855;50.718;-2.460;2023-06-14T02:23:05;5.45;5.87;
74419;PMS5003;62855;50.718;-2.460;2023-06-14T02:26:05;5.45;5.87;
74419;PMS5003;62855;50.718;-2.460;2023-06-14T02:29:06;5.45;5.87;
74419;PMS5003;62855;50.718;-2.460;2023-06-14T02:32:06;5.45;5.87;
74419;PMS5003;62855;50.718;-2.460;2023-06-14T02:35:07;5.45;5.87;
74419;PMS5003;62855;50.718;-2.460;2023-06-14T02:38:06;5.45;5.87;
74419;PMS5003;62855;50.718;-2.460;2023-06-14T02:41:06;4.54;4.89;
74419;PMS5003;62855;50.718;-2.460;2023-06-14T02:44:06;4.54;4.89;
74419;PMS5003;62855;50.718;-2.460;2023-06-14T02:47:06;4.54;4.89;
74419;PMS5003;62855;50.718;-2.460;2023-06-14T02:50:06;4.54;4.89;
74419;PMS5003;62855;50.718;-2.460;2023-06-14T02:53:06;5.45;5.87;
74419;PMS5003;62855;50.718;-2.460;2023-06-14T02:56:06;5.45;5.87;
74419;PMS5003;62855;50.718;-2.460;2023-06-14T02:59:06;4.54;4.89;
74419;PMS5003;62855;50.718;-2.460;2023-06-14T03:02:06;4.54;4.89;
74419;PMS5003;62855;50.718;-2.460;2023-06-14T03:05:06;5.45;5.87;
74419;PMS5003;62855;50.718;-2.460;2023-06-14T03:08:06;5.45;5.87;
74419;PMS5003;62855;50.718;-2.460;2023-06-14T03:11:06;5.45;5.87;
74419;PMS5003;62855;50.718;-2.460;2023-06-14T03:14:05;5.45;5.87;
74419;PMS5003;62855;50.718;-2.460;2023-06-14T03:17:06;5.45;5.87;
74419;PMS5003;62855;50.718;-2.460;2023-06-14T03:20:06;6.35;5.87;
74419;PMS5003;62855;50.718;-2.460;2023-06-14T03:23:06;6.35;6.84;
74419;PMS5003;62855;50.718;-2.460;2023-06-14T03:26:06;6.35;6.84;
74419;PMS5003;62855;50.718;-2.460;2023-06-14T03:29:06;7.26;6.84;
74419;PMS5003;62855;50.718;-2.460;2023-06-14T03:32:06;6.35;6.84;
74419;PMS5003;62855;50.718;-2.460;2023-06-14T03:35:06;6.35;6.84;
74419;PMS5003;62855;50.718;-2.460;2023-06-14T03:38:06;6.35;6.84;
74419;PMS5003;62855;50.718;-2.460;2023-06-14T03:41:06;6.35;6.84;
74419;PMS5003;62855;50.718;-2.460;2023-06-14T03:44:06;5.45;5.87;
74419;PMS5003;62855;50.718;-2.460;2023-06-14T03:47:06;6.35;6.84;
74419;PMS5003;62855;50.718;-2.460;2023-06-14T03:50:06;5.45;5.87;
74419;PMS5003;62855;50.718;-2.460;2023-06-14T03:53:06;5.45;5.87;
74419;PMS5003;62855;50.718;-2.460;2023-06-14T03:56:05;4.54;4.89;
74419;PMS5003;62855;50.718;-2.460;2023-06-14T03:59:05;4.54;4.89;
74419;PMS5003;62855;50.718;-2.460;2023-06-14T04:02:06;4.54;4.89;
74419;PMS5003;62855;50.718;-2.460;2023-06-14T04:05:06;5.45;5.87;
74419;PMS5003;62855;50.718;-2.460;2023-06-14T04:08:06;5.45;5.87;
74419;PMS5003;62855;50.718;-2.460;2023-06-14T04:11:06;5.45;5.87;
74419;PMS5003;62855;50.718;-2.460;2023-06-14T04:14:06;5.45;5.87;
74419;PMS5003;62855;50.718;-2.460;2023-06-14T04:17:06;4.54;4.89;
74419;PMS5003;62855;50.718;-2.460;2023-06-14T04:20:06;5.45;5.87;
74419;PMS5003;62855;50.718;-2.460;2023-06-14T04:23:11;5.45;5.87;
74419;PMS5003;62855;50.718;-2.460;2023-06-14T04:26:06;6.35;6.84;
74419;PMS5003;62855;50.718;-2.460;2023-06-14T04:29:05;8.17;8.80;
74419;PMS5003;62855;50.718;-2.460;2023-06-14T04:32:06;8.17;8.80;
74419;PMS5003;62855;50.718;-2.460;2023-06-14T04:35:06;7.26;7.82;
74419;PMS5003;62855;50.718;-2.460;2023-06-14T04:39:05;7.26;7.82;
74419;PMS5003;62855;50.718;-2.460;2023-06-14T04:42:05;7.26;7.82;
74419;PMS5003;62855;50.718;-2.460;2023-06-14T04:45:06;6.35;6.84;
74419;PMS5003;62855;50.718;-2.460;2023-06-14T04:48:05;6.35;6.84;
74419;PMS5003;62855;50.718;-2.460;2023-06-14T04:51:06;6.35;6.84;
74419;PMS5003;62855;50.718;-2.460;2023-06-14T04:54:06;7.26;6.84;
74419;PMS5003;62855;50.718;-2.460;2023-06-14T04:57:05;7.26;6.84;
74419;PMS5003;62855;50.718;-2.460;2023-06-14T05:00:06;4.54;3.91;
74419;PMS5003;62855;50.718;-2.460;2023-06-14T05:03:06;4.54;4.89;
74419;PMS5003;62855;50.718;-2.460;2023-06-14T05:06:06;6.35;5.87;
74419;PMS5003;62855;50.718;-2.460;2023-06-14T05:09:06;6.35;5.87;
74419;PMS5003;62855;50.718;-2.460;2023-06-14T05:12:07;6.35;5.87;
74419;PMS5003;62855;50.718;-2.460;2023-06-14T05:15:07;6.35;5.87;
74419;PMS5003;62855;50.718;-2.460;2023-06-14T05:18:06;7.26;6.84;
74419;PMS5003;62855;50.718;-2.460;2023-06-14T05:21:05;7.26;6.84;
74419;PMS5003;62855;50.718;-2.460;2023-06-14T05:24:06;7.26;7.82;
74419;PMS5003;62855;50.718;-2.460;2023-06-14T05:27:05;7.26;7.82;
74419;PMS5003;62855;50.718;-2.460;2023-06-14T05:30:06;7.26;7.82;
74419;PMS5003;62855;50.718;-2.460;2023-06-14T05:33:06;6.35;6.84;
74419;PMS5003;62855;50.718;-2.460;2023-06-14T05:36:06;6.35;6.84;
74419;PMS5003;62855;50.718;-2.460;2023-06-14T05:39:06;7.26;7.82;
74419;PMS5003;62855;50.718;-2.460;2023-06-14T05:42:06;7.26;7.82;
74419;PMS5003;62855;50.718;-2.460;2023-06-14T05:45:06;7.26;7.82;
74419;PMS5003;62855;50.718;-2.460;2023-06-14T05:48:06;7.26;6.84;
74419;PMS5003;62855;50.718;-2.460;2023-06-14T05:51:05;6.35;6.84;
74419;PMS5003;62855;50.718;-2.460;2023-06-14T05:54:05;6.35;5.87;
74419;PMS5003;62855;50.718;-2.460;2023-06-14T05:57:05;6.35;6.84;
74419;PMS5003;62855;50.718;-2.460;2023-06-14T06:00:06;7.26;6.84;
74419;PMS5003;62855;50.718;-2.460;2023-06-14T06:03:06;7.26;6.84;
74419;PMS5003;62855;50.718;-2.460;2023-06-14T06:06:05;8.17;7.82;
74419;PMS5003;62855;50.718;-2.460;2023-06-14T06:09:06;6.35;6.84;
74419;PMS5003;62855;50.718;-2.460;2023-06-14T06:12:06;5.45;5.87;
74419;PMS5003;62855;50.718;-2.460;2023-06-14T06:15:06;6.35;6.84;
74419;PMS5003;62855;50.718;-2.460;2023-06-14T06:18:06;6.35;6.84;
74419;PMS5003;62855;50.718;-2.460;2023-06-14T06:21:06;6.35;6.84;
74419;PMS5003;62855;50.718;-2.460;2023-06-14T06:24:06;5.45;5.87;
74419;PMS5003;62855;50.718;-2.460;2023-06-14T06:27:05;5.45;5.87;
74419;PMS5003;62855;50.718;-2.460;2023-06-14T06:30:06;4.54;4.89;
74419;PMS5003;62855;50.718;-2.460;2023-06-14T06:33:06;4.54;4.89;
74419;PMS5003;62855;50.718;-2.460;2023-06-14T06:36:05;3.63;3.91;
74419;PMS5003;62855;50.718;-2.460;2023-06-14T06:39:06;4.54;4.89;
74419;PMS5003;62855;50.718;-2.460;2023-06-14T06:42:06;3.63;3.91;
74419;PMS5003;62855;50.718;-2.460;2023-06-14T06:45:06;4.54;4.89;
74419;PMS5003;62855;50.718;-2.460;2023-06-14T06:48:06;4.54;4.89;
74419;PMS5003;62855;50.718;-2.460;2023-06-14T06:51:06;3.63;3.91;
74419;PMS5003;62855;50.718;-2.460;2023-06-14T06:54:06;4.54;4.89;
74419;PMS5003;62855;50.718;-2.460;2023-06-14T06:57:05;4.54;4.89;
74419;PMS5003;62855;50.718;-2.460;2023-06-14T07:00:06;5.45;5.87;
74419;PMS5003;62855;50.718;-2.460;2023-06-14T07:03:06;4.54;4.89;
74419;PMS5003;62855;50.718;-2.460;2023-06-14T07:06:06;4.54;4.89;
74419;PMS5003;62855;50.718;-2.460;2023-06-14T07:09:06;4.54;4.89;
74419;PMS5003;62855;50.718;-2.460;2023-06-14T07:12:06;6.35;6.84;
74419;PMS5003;62855;50.718;-2.460;2023-06-14T07:15:06;4.54;4.89;
74419;PMS5003;62855;50.718;-2.460;2023-06-14T07:18:06;4.54;4.89;
74419;PMS5003;62855;50.718;-2.460;2023-06-14T07:21:06;4.54;4.89;
74419;PMS5003;62855;50.718;-2.460;2023-06-14T07:24:06;5.45;5.87;
74419;PMS5003;62855;50.718;-2.460;2023-06-14T07:27:05;5.45;5.87;
74419;PMS5003;62855;50.718;-2.460;2023-06-14T07:30:07;5.45;5.87;
74419;PMS5003;62855;50.718;-2.460;2023-06-14T07:33:06;5.45;5.87;
74419;PMS5003;62855;50.718;-2.460;2023-06-14T07:36:06;5.45;5.87;
74419;PMS5003;62855;50.718;-2.460;2023-06-14T07:39:06;5.45;5.87;
74419;PMS5003;62855;50.718;-2.460;2023-06-14T07:42:06;5.45;5.87;
74419;PMS5003;62855;50.718;-2.460;2023-06-14T07:45:07;5.45;5.87;
74419;PMS5003;62855;50.718;-2.460;2023-06-14T07:48:05;6.35;6.84;
74419;PMS5003;62855;50.718;-2.460;2023-06-14T07:51:06;6.35;6.84;
74419;PMS5003;62855;50.718;-2.460;2023-06-14T07:54:06;6.35;6.84;
74419;PMS5003;62855;50.718;-2.460;2023-06-14T07:57:06;6.35;6.84;
74419;PMS5003;62855;50.718;-2.460;2023-06-14T08:00:07;6.35;6.84;
74419;PMS5003;62855;50.718;-2.460;2023-06-14T08:03:06;6.35;6.84;
74419;PMS5003;62855;50.718;-2.460;2023-06-14T08:06:06;6.35;6.84;
74419;PMS5003;62855;50.718;-2.460;2023-06-14T08:09:06;6.35;6.84;
74419;PMS5003;62855;50.718;-2.460;2023-06-14T08:12:06;5.45;5.87;
74419;PMS5003;62855;50.718;-2.460;2023-06-14T08:15:06;6.35;6.84;
74419;PMS5003;62855;50.718;-2.460;2023-06-14T08:18:06;5.45;5.87;
74419;PMS5003;62855;50.718;-2.460;2023-06-14T08:21:05;4.54;4.89;
74419;PMS5003;62855;50.718;-2.460;2023-06-14T08:24:06;4.54;4.89;
74419;PMS5003;62855;50.718;-2.460;2023-06-14T08:27:06;5.45;5.87;
74419;PMS5003;62855;50.718;-2.460;2023-06-14T08:30:06;5.45;5.87;
74419;PMS5003;62855;50.718;-2.460;2023-06-14T08:33:06;5.45;5.87;
74419;PMS5003;62855;50.718;-2.460;2023-06-14T08:36:06;5.45;5.87;
74419;PMS5003;62855;50.718;-2.460;2023-06-14T08:39:06;5.45;5.87;
74419;PMS5003;62855;50.718;-2.460;2023-06-14T08:42:07;6.35;6.84;
74419;PMS5003;62855;50.718;-2.460;2023-06-14T08:45:06;7.26;7.82;
74419;PMS5003;62855;50.718;-2.460;2023-06-14T08:48:06;7.26;6.84;
74419;PMS5003;62855;50.718;-2.460;2023-06-14T08:51:06;8.17;7.82;
74419;PMS5003;62855;50.718;-2.460;2023-06-14T08:54:05;7.26;7.82;
74419;PMS5003;62855;50.718;-2.460;2023-06-14T08:57:06;8.17;7.82;
74419;PMS5003;62855;50.718;-2.460;2023-06-14T09:00:06;8.17;7.82;
74419;PMS5003;62855;50.718;-2.460;2023-06-14T09:03:05;8.17;7.82;
74419;PMS5003;62855;50.718;-2.460;2023-06-14T09:06:06;9.08;8.80;
74419;PMS5003;62855;50.718;-2.460;2023-06-14T09:09:06;9.08;8.80;
74419;PMS5003;62855;50.718;-2.460;2023-06-14T09:12:07;7.26;7.82;
74419;PMS5003;62855;50.718;-2.460;2023-06-14T09:15:06;7.26;6.84;
74419;PMS5003;62855;50.718;-2.460;2023-06-14T09:18:06;6.35;6.84;
74419;PMS5003;62855;50.718;-2.460;2023-06-14T09:21:06;5.45;5.87;
74419;PMS5003;62855;50.718;-2.460;2023-06-14T09:24:06;5.45;5.87;
74419;PMS5003;62855;50.718;-2.460;2023-06-14T09:27:06;5.45;5.87;
74419;PMS5003;62855;50.718;-2.460;2023-06-14T09:30:08;5.45;5.87;
74419;PMS5003;62855;50.718;-2.460;2023-06-14T09:33:06;5.45;5.87;
74419;PMS5003;62855;50.718;-2.460;2023-06-14T09:36:09;4.54;4.89;
74419;PMS5003;62855;50.718;-2.460;2023-06-14T09:39:05;4.54;4.89;
74419;PMS5003;62855;50.718;-2.460;2023-06-14T09:42:08;5.45;5.87;
74419;PMS5003;62855;50.718;-2.460;2023-06-14T09:45:06;5.45;5.87;
74419;PMS5003;62855;50.718;-2.460;2023-06-14T09:48:06;7.26;6.84;
74419;PMS5003;62855;50.718;-2.460;2023-06-14T09:51:06;6.35;6.84;
74419;PMS5003;62855;50.718;-2.460;2023-06-14T09:54:05;6.35;5.87;
74419;PMS5003;62855;50.718;-2.460;2023-06-14T09:57:06;7.26;6.84;
74419;PMS5003;62855;50.718;-2.460;2023-06-14T10:00:06;7.26;6.84;
74419;PMS5003;62855;50.718;-2.460;2023-06-14T10:03:08;6.35;5.87;
74419;PMS5003;62855;50.718;-2.460;2023-06-14T10:06:06;7.26;5.87;
74419;PMS5003;62855;50.718;-2.460;2023-06-14T10:09:07;7.26;6.84;
74419;PMS5003;62855;50.718;-2.460;2023-06-14T10:12:07;6.35;5.87;
74419;PMS5003;62855;50.718;-2.460;2023-06-14T10:15:07;6.35;4.89;
74419;PMS5003;62855;50.718;-2.460;2023-06-14T10:18:07;5.45;4.89;
74419;PMS5003;62855;50.718;-2.460;2023-06-14T10:21:08;6.35;5.87;
74419;PMS5003;62855;50.718;-2.460;2023-06-14T10:24:06;5.45;5.87;
74419;PMS5003;62855;50.718;-2.460;2023-06-14T10:27:06;5.45;5.87;
74419;PMS5003;62855;50.718;-2.460;2023-06-14T10:30:07;5.45;5.87;
74419;PMS5003;62855;50.718;-2.460;2023-06-14T10:33:06;5.45;5.87;
74419;PMS5003;62855;50.718;-2.460;2023-06-14T10:36:07;5.45;5.87;
74419;PMS5003;62855;50.718;-2.460;2023-06-14T10:39:06;4.54;4.89;
74419;PMS5003;62855;50.718;-2.460;2023-06-14T10:42:06;5.45;5.87;
74419;PMS5003;62855;50.718;-2.460;2023-06-14T10:45:06;4.54;4.89;
74419;PMS5003;62855;50.718;-2.460;2023-06-14T10:48:06;4.54;4.89;
74419;PMS5003;62855;50.718;-2.460;2023-06-14T10:51:06;4.54;4.89;
74419;PMS5003;62855;50.718;-2.460;2023-06-14T10:54:07;4.54;4.89;
74419;PMS5003;62855;50.718;-2.460;2023-06-14T10:57:06;5.45;5.87;
74419;PMS5003;62855;50.718;-2.460;2023-06-14T11:00:06;5.45;5.87;
74419;PMS5003;62855;50.718;-2.460;2023-06-14T11:06:12;5.45;5.87;
74419;PMS5003;62855;50.718;-2.460;2023-06-14T11:09:11;5.45;5.87;
74419;PMS5003;62855;50.718;-2.460;2023-06-14T11:12:06;5.45;5.87;
74419;PMS5003;62855;50.718;-2.460;2023-06-14T11:15:06;5.45;5.87;
74419;PMS5003;62855;50.718;-2.460;2023-06-14T11:18:06;6.35;6.84;
74419;PMS5003;62855;50.718;-2.460;2023-06-14T11:21:06;5.45;5.87;
74419;PMS5003;62855;50.718;-2.460;2023-06-14T11:24:09;6.35;6.84;
74419;PMS5003;62855;50.718;-2.460;2023-06-14T11:27:06;5.45;5.87;
74419;PMS5003;62855;50.718;-2.460;2023-06-14T11:30:07;4.54;4.89;
74419;PMS5003;62855;50.718;-2.460;2023-06-14T11:33:09;4.54;4.89;
74419;PMS5003;62855;50.718;-2.460;2023-06-14T11:36:06;5.45;5.87;
74419;PMS5003;62855;50.718;-2.460;2023-06-14T11:39:06;5.45;5.87;
74419;PMS5003;62855;50.718;-2.460;2023-06-14T11:42:06;6.35;6.84;
74419;PMS5003;62855;50.718;-2.460;2023-06-14T11:45:07;7.26;6.84;
74419;PMS5003;62855;50.718;-2.460;2023-06-14T11:48:06;6.35;5.87;
74419;PMS5003;62855;50.718;-2.460;2023-06-14T11:51:05;6.35;5.87;
74419;PMS5003;62855;50.718;-2.460;2023-06-14T11:54:06;6.35;5.87;
74419;PMS5003;62855;50.718;-2.460;2023-06-14T11:57:06;6.35;6.84;
74419;PMS5003;62855;50.718;-2.460;2023-06-14T12:00:06;6.35;6.84;
74419;PMS5003;62855;50.718;-2.460;2023-06-14T12:03:06;6.35;6.84;
74419;PMS5003;62855;50.718;-2.460;2023-06-14T12:06:06;6.35;6.84;
74419;PMS5003;62855;50.718;-2.460;2023-06-14T12:09:06;6.35;6.84;
74419;PMS5003;62855;50.718;-2.460;2023-06-14T12:12:06;5.45;5.87;
74419;PMS5003;62855;50.718;-2.460;2023-06-14T12:15:07;6.35;6.84;
74419;PMS5003;62855;50.718;-2.460;2023-06-14T12:18:06;7.26;7.82;
74419;PMS5003;62855;50.718;-2.460;2023-06-14T12:21:06;7.26;7.82;
74419;PMS5003;62855;50.718;-2.460;2023-06-14T12:24:06;7.26;7.82;
74419;PMS5003;62855;50.718;-2.460;2023-06-14T12:27:06;7.26;7.82;
74419;PMS5003;62855;50.718;-2.460;2023-06-14T12:30:06;7.26;7.82;
74419;PMS5003;62855;50.718;-2.460;2023-06-14T12:33:06;7.26;7.82;
74419;PMS5003;62855;50.718;-2.460;2023-06-14T12:36:07;7.26;7.82;
74419;PMS5003;62855;50.718;-2.460;2023-06-14T12:39:05;5.45;5.87;
74419;PMS5003;62855;50.718;-2.460;2023-06-14T12:42:06;5.45;5.87;
74419;PMS5003;62855;50.718;-2.460;2023-06-14T12:45:06;5.45;5.87;
74419;PMS5003;62855;50.718;-2.460;2023-06-14T12:48:06;5.45;5.87;
74419;PMS5003;62855;50.718;-2.460;2023-06-14T12:51:06;5.45;5.87;
74419;PMS5003;62855;50.718;-2.460;2023-06-14T12:54:05;4.54;4.89;
74419;PMS5003;62855;50.718;-2.460;2023-06-14T12:57:06;4.54;4.89;
74419;PMS5003;62855;50.718;-2.460;2023-06-14T13:00:06;4.54;4.89;
74419;PMS5003;62855;50.718;-2.460;2023-06-14T13:03:05;4.54;4.89;
74419;PMS5003;62855;50.718;-2.460;2023-06-14T13:06:06;5.45;4.89;
74419;PMS5003;62855;50.718;-2.460;2023-06-14T13:09:06;5.45;3.91;
74419;PMS5003;62855;50.718;-2.460;2023-06-14T13:12:06;5.45;4.89;
74419;PMS5003;62855;50.718;-2.460;2023-06-14T13:15:06;5.45;4.89;
74419;PMS5003;62855;50.718;-2.460;2023-06-14T13:18:06;6.35;4.89;
74419;PMS5003;62855;50.718;-2.460;2023-06-14T13:21:06;5.45;4.89;
74419;PMS5003;62855;50.718;-2.460;2023-06-14T13:24:06;6.35;4.89;
74419;PMS5003;62855;50.718;-2.460;2023-06-14T13:27:06;6.35;5.87;
74419;PMS5003;62855;50.718;-2.460;2023-06-14T13:30:06;6.35;4.89;
74419;PMS5003;62855;50.718;-2.460;2023-06-14T13:33:06;5.45;4.89;
74419;PMS5003;62855;50.718;-2.460;2023-06-14T13:36:05;4.54;4.89;
74419;PMS5003;62855;50.718;-2.460;2023-06-14T13:39:06;4.54;4.89;
74419;PMS5003;62855;50.718;-2.460;2023-06-14T13:42:06;4.54;4.89;
74419;PMS5003;62855;50.718;-2.460;2023-06-14T13:45:07;5.45;5.87;
74419;PMS5003;62855;50.718;-2.460;2023-06-14T13:48:05;4.54;4.89;
74419;PMS5003;62855;50.718;-2.460;2023-06-14T13:51:06;5.45;5.87;
74419;PMS5003;62855;50.718;-2.460;2023-06-14T13:54:06;5.45;5.87;
74419;PMS5003;62855;50.718;-2.460;2023-06-14T13:57:05;4.54;4.89;
74419;PMS5003;62855;50.718;-2.460;2023-06-14T14:00:07;4.54;4.89;
74419;PMS5003;62855;50.718;-2.460;2023-06-14T14:03:06;4.54;4.89;
74419;PMS5003;62855;50.718;-2.460;2023-06-14T14:06:06;5.45;5.87;
74419;PMS5003;62855;50.718;-2.460;2023-06-14T14:09:07;5.45;5.87;
74419;PMS5003;62855;50.718;-2.460;2023-06-14T14:12:06;5.45;5.87;
74419;PMS5003;62855;50.718;-2.460;2023-06-14T14:15:06;5.45;5.87;
74419;PMS5003;62855;50.718;-2.460;2023-06-14T14:18:06;5.45;5.87;
74419;PMS5003;62855;50.718;-2.460;2023-06-14T14:21:05;4.54;4.89;
74419;PMS5003;62855;50.718;-2.460;2023-06-14T14:24:06;4.54;4.89;
74419;PMS5003;62855;50.718;-2.460;2023-06-14T14:27:06;4.54;4.89;
74419;PMS5003;62855;50.718;-2.460;2023-06-14T14:30:06;4.54;4.89;
74419;PMS5003;62855;50.718;-2.460;2023-06-14T14:33:06;5.45;5.87;
74419;PMS5003;62855;50.718;-2.460;2023-06-14T14:36:06;6.35;6.84;
74419;PMS5003;62855;50.718;-2.460;2023-06-14T14:39:06;5.45;5.87;
74419;PMS5003;62855;50.718;-2.460;2023-06-14T14:42:06;5.45;5.87;
74419;PMS5003;62855;50.718;-2.460;2023-06-14T14:45:06;6.35;6.84;
74419;PMS5003;62855;50.718;-2.460;2023-06-14T14:48:05;6.35;6.84;
74419;PMS5003;62855;50.718;-2.460;2023-06-14T14:51:06;6.35;6.84;
74419;PMS5003;62855;50.718;-2.460;2023-06-14T14:54:06;7.26;7.82;
74419;PMS5003;62855;50.718;-2.460;2023-06-14T14:57:06;7.26;7.82;
74419;PMS5003;62855;50.718;-2.460;2023-06-14T15:00:06;8.17;7.82;
74419;PMS5003;62855;50.718;-2.460;2023-06-14T15:03:06;7.26;7.82;
74419;PMS5003;62855;50.718;-2.460;2023-06-14T15:06:05;7.26;6.84;
74419;PMS5003;62855;50.718;-2.460;2023-06-14T15:09:06;6.35;5.87;
74419;PMS5003;62855;50.718;-2.460;2023-06-14T15:12:06;6.35;5.87;
74419;PMS5003;62855;50.718;-2.460;2023-06-14T15:15:06;6.35;5.87;
74419;PMS5003;62855;50.718;-2.460;2023-06-14T15:18:06;5.45;5.87;
74419;PMS5003;62855;50.718;-2.460;2023-06-14T15:21:06;5.45;4.89;
74419;PMS5003;62855;50.718;-2.460;2023-06-14T15:24:06;6.35;5.87;
74419;PMS5003;62855;50.718;-2.460;2023-06-14T15:27:06;6.35;5.87;
74419;PMS5003;62855;50.718;-2.460;2023-06-14T15:30:06;5.45;4.89;
74419;PMS5003;62855;50.718;-2.460;2023-06-14T15:33:06;5.45;4.89;
74419;PMS5003;62855;50.718;-2.460;2023-06-14T15:36:05;4.54;4.89;
74419;PMS5003;62855;50.718;-2.460;2023-06-14T15:39:06;5.45;4.89;
74419;PMS5003;62855;50.718;-2.460;2023-06-14T15:42:06;5.45;4.89;
74419;PMS5003;62855;50.718;-2.460;2023-06-14T15:45:06;6.35;5.87;
74419;PMS5003;62855;50.718;-2.460;2023-06-14T15:48:15;6.35;5.87;
74419;PMS5003;62855;50.718;-2.460;2023-06-14T15:51:06;6.35;5.87;
74419;PMS5003;62855;50.718;-2.460;2023-06-14T15:54:06;6.35;6.84;
74419;PMS5003;62855;50.718;-2.460;2023-06-14T15:57:06;5.45;5.87;
74419;PMS5003;62855;50.718;-2.460;2023-06-14T16:00:06;5.45;5.87;
74419;PMS5003;62855;50.718;-2.460;2023-06-14T16:03:05;4.54;4.89;
74419;PMS5003;62855;50.718;-2.460;2023-06-14T16:06:05;5.45;5.87;
74419;PMS5003;62855;50.718;-2.460;2023-06-14T16:09:06;5.45;5.87;
74419;PMS5003;62855;50.718;-2.460;2023-06-14T16:12:06;6.35;6.84;
74419;PMS5003;62855;50.718;-2.460;2023-06-14T16:15:06;6.35;6.84;
74419;PMS5003;62855;50.718;-2.460;2023-06-14T16:18:06;5.45;5.87;
74419;PMS5003;62855;50.718;-2.460;2023-06-14T16:21:06;5.45;5.87;
74419;PMS5003;62855;50.718;-2.460;2023-06-14T16:24:06;4.54;4.89;
74419;PMS5003;62855;50.718;-2.460;2023-06-14T16:27:06;5.45;5.87;
74419;PMS5003;62855;50.718;-2.460;2023-06-14T16:30:06;6.35;6.84;
74419;PMS5003;62855;50.718;-2.460;2023-06-14T16:33:06;6.35;6.84;
74419;PMS5003;62855;50.718;-2.460;2023-06-14T16:36:06;6.35;6.84;
74419;PMS5003;62855;50.718;-2.460;2023-06-14T16:39:06;6.35;6.84;
74419;PMS5003;62855;50.718;-2.460;2023-06-14T16:42:06;5.45;5.87;
74419;PMS5003;62855;50.718;-2.460;2023-06-14T16:45:06;5.45;5.87;
74419;PMS5003;62855;50.718;-2.460;2023-06-14T16:48:06;5.45;5.87;
74419;PMS5003;62855;50.718;-2.460;2023-06-14T16:51:06;6.35;6.84;
74419;PMS5003;62855;50.718;-2.460;2023-06-14T16:54:06;5.45;5.87;
74419;PMS5003;62855;50.718;-2.460;2023-06-14T16:57:06;6.35;6.84;
74419;PMS5003;62855;50.718;-2.460;2023-06-14T17:00:06;4.54;4.89;
74419;PMS5003;62855;50.718;-2.460;2023-06-14T17:03:06;4.54;4.89;
74419;PMS5003;62855;50.718;-2.460;2023-06-14T17:06:05;4.54;4.89;
74419;PMS5003;62855;50.718;-2.460;2023-06-14T17:09:06;3.63;3.91;
74419;PMS5003;62855;50.718;-2.460;2023-06-14T17:12:06;4.54;4.89;
74419;PMS5003;62855;50.718;-2.460;2023-06-14T17:15:06;5.45;5.87;
74419;PMS5003;62855;50.718;-2.460;2023-06-14T17:18:06;5.45;5.87;
74419;PMS5003;62855;50.718;-2.460;2023-06-14T17:21:05;5.45;5.87;
74419;PMS5003;62855;50.718;-2.460;2023-06-14T17:24:06;4.54;4.89;
74419;PMS5003;62855;50.718;-2.460;2023-06-14T17:27:06;4.54;4.89;
74419;PMS5003;62855;50.718;-2.460;2023-06-14T17:30:06;4.54;4.89;
74419;PMS5003;62855;50.718;-2.460;2023-06-14T17:33:07;4.54;4.89;
74419;PMS5003;62855;50.718;-2.460;2023-06-14T17:36:06;4.54;4.89;
74419;PMS5003;62855;50.718;-2.460;2023-06-14T17:39:06;4.54;4.89;
74419;PMS5003;62855;50.718;-2.460;2023-06-14T17:42:06;4.54;4.89;
74419;PMS5003;62855;50.718;-2.460;2023-06-14T17:45:06;3.63;3.91;
74419;PMS5003;62855;50.718;-2.460;2023-06-14T17:48:06;3.63;3.91;
74419;PMS5003;62855;50.718;-2.460;2023-06-14T17:51:06;3.63;3.91;
74419;PMS5003;62855;50.718;-2.460;2023-06-14T17:54:05;3.63;3.91;
74419;PMS5003;62855;50.718;-2.460;2023-06-14T17:57:06;4.54;4.89;
74419;PMS5003;62855;50.718;-2.460;2023-06-14T18:00:06;3.63;3.91;
74419;PMS5003;62855;50.718;-2.460;2023-06-14T18:03:13;2.72;2.93;
74419;PMS5003;62855;50.718;-2.460;2023-06-14T18:06:05;3.63;3.91;
74419;PMS5003;62855;50.718;-2.460;2023-06-14T18:09:06;3.63;3.91;
74419;PMS5003;62855;50.718;-2.460;2023-06-14T18:12:07;3.63;3.91;
74419;PMS5003;62855;50.718;-2.460;2023-06-14T18:15:07;3.63;3.91;
74419;PMS5003;62855;50.718;-2.460;2023-06-14T18:18:06;2.72;2.93;
74419;PMS5003;62855;50.718;-2.460;2023-06-14T18:21:06;3.63;3.91;
74419;PMS5003;62855;50.718;-2.460;2023-06-14T18:24:06;3.63;3.91;
74419;PMS5003;62855;50.718;-2.460;2023-06-14T18:27:06;4.54;4.89;